Back to Top

My Weather Underground Personal Weather Station Historical Data with Graphs...

Delerius Weather Station Historical Data
 
Daily Summary for February 26, 2021 Units:  English    Metric   Both
Daily Weekly Monthly Yearly
  Current: High: Low: Average:
Temperature: 48.9 °F 49.8 °F 36.3 °F 41 °F
Dew Point: 40.6 °F 42.3 °F 34.2 °F 37.6 °F
Humidity: 73.2% 93% 71.5% 88%
Wind Speed: 8.1mph 10.2mph 0mph 4.4mph
Wind Gust: 11mph 19mph - -
WindWNW - - WSW
Pressure: 30.6 in 30.6 in 30.5 in -
Precipitation: 0 in      
 
 
Tabular Data for February 26, 2021
Time Temperature Dew Point Pressure Wind Wind Speed Wind Gust Humidity Rainfall Rate (Hourly) solar
00:04 39.7 °F 37 °F 30.5 in WSW 5.2 mph 8 mph 90% 0 in 0 W/m2
00:09 39.6 °F 36.9 °F 30.5 in WSW 3.8 mph 8 mph 90% 0 in 0 W/m2
00:14 39.6 °F 36.9 °F 30.5 in WSW 4.3 mph 7 mph 90% 0 in 0 W/m2
00:19 39.6 °F 36.7 °F 30.5 in WSW 4.6 mph 7 mph 89.4% 0 in 0 W/m2
00:24 39.2 °F 36.5 °F 30.5 in WSW 4.2 mph 7 mph 89.7% 0 in 0 W/m2
00:34 38.8 °F 36.3 °F 30.5 in WSW 1.8 mph 6 mph 90% 0 in 0 W/m2
00:39 38.8 °F 36.1 °F 30.5 in West 1.3 mph 6 mph 90% 0 in 0 W/m2
00:44 38.8 °F 36.3 °F 30.5 in West 0.6 mph 5 mph 90% 0 in 0 W/m2
00:49 38.8 °F 36.1 °F 30.5 in Calm   2 mph 90% 0 in 0 W/m2
00:54 38.8 °F 36.1 °F 30.5 in Calm   2 mph 90% 0 in 0 W/m2
00:59 38.8 °F 36.1 °F 30.5 in Calm   2 mph 90% 0 in 0 W/m2
01:04 38.7 °F 36 °F 30.5 in Calm     90% 0 in 0 W/m2
01:09 38.7 °F 36 °F 30.5 in Calm   1 mph 90% 0 in 0 W/m2
01:14 38.5 °F 35.8 °F 30.5 in Calm     90% 0 in 0 W/m2
01:19 38.3 °F 36 °F 30.5 in Calm     90.7% 0 in 0 W/m2
01:24 38.1 °F 35.8 °F 30.5 in Calm   1 mph 91% 0 in 0 W/m2
01:29 38.1 °F 35.8 °F 30.5 in Calm   1 mph 91% 0 in 0 W/m2
01:34 37.9 °F 35.6 °F 30.5 in Calm   4 mph 91% 0 in 0 W/m2
01:39 38.1 °F 35.6 °F 30.5 in Calm   4 mph 91% 0 in 0 W/m2
01:44 38.1 °F 35.8 °F 30.5 in Calm   4 mph 91% 0 in 0 W/m2
01:49 38.5 °F 36 °F 30.5 in WSW 0.6 mph 4 mph 91% 0 in 0 W/m2
01:54 38.5 °F 36 °F 30.5 in Calm   2 mph 91% 0 in 0 W/m2
01:59 38.3 °F 35.8 °F 30.5 in Calm   1 mph 91% 0 in 0 W/m2
02:04 38.1 °F 35.8 °F 30.5 in Calm   2 mph 91% 0 in 0 W/m2
02:09 38.1 °F 35.6 °F 30.5 in WSW 1.6 mph 5 mph 91% 0 in 0 W/m2
02:14 37.9 °F 35.8 °F 30.5 in WSW 2.7 mph 6 mph 91.3% 0 in 0 W/m2
02:19 37.9 °F 35.4 °F 30.5 in WSW 3.4 mph 6 mph 91% 0 in 0 W/m2
02:24 37.9 °F 35.6 °F 30.5 in WSW 3.9 mph 7 mph 91.2% 0 in 0 W/m2
02:29 37.9 °F 35.8 °F 30.5 in WSW 5 mph 8 mph 92% 0 in 0 W/m2
02:34 37.9 °F 35.8 °F 30.5 in WSW 5.5 mph 8 mph 92% 0 in 0 W/m2
02:39 37.8 °F 35.6 °F 30.5 in WSW 4.4 mph 7 mph 92% 0 in 0 W/m2
02:44 37.6 °F 35.6 °F 30.5 in WSW 3.7 mph 6 mph 92% 0 in 0 W/m2
02:49 37.6 °F 35.4 °F 30.5 in WSW 4.6 mph 6 mph 92% 0 in 0 W/m2
02:54 37.6 °F 35.4 °F 30.5 in SW 4.8 mph 7 mph 92% 0 in 0 W/m2
02:59 37.4 °F 35.2 °F 30.5 in SW 5 mph 7 mph 92% 0 in 0 W/m2
03:04 37.2 °F 35.2 °F 30.5 in SW 5.5 mph 7 mph 92% 0 in 0 W/m2
03:09 37.2 °F 35.1 °F 30.5 in SW 5 mph 7 mph 92% 0 in 0 W/m2
03:14 37.2 °F 35.1 °F 30.5 in SW 4.9 mph 7 mph 92% 0 in 0 W/m2
03:19 37 °F 35.1 °F 30.5 in WSW 4 mph 6 mph 92% 0 in 0 W/m2
03:24 37 °F 34.9 °F 30.5 in WSW 2 mph 6 mph 92% 0 in 0 W/m2
03:29 36.9 °F 34.9 °F 30.5 in West 1.6 mph 7 mph 92% 0 in 0 W/m2
03:34 37 °F 34.9 °F 30.5 in West 2.7 mph 7 mph 92% 0 in 0 W/m2
03:39 37.2 °F 35.1 °F 30.5 in West 2 mph 6 mph 92% 0 in 0 W/m2
03:44 37.2 °F 35.1 °F 30.5 in WSW 1 mph 5 mph 92% 0 in 0 W/m2
03:49 37.2 °F 35.1 °F 30.5 in WSW 1.9 mph 6 mph 92% 0 in 0 W/m2
03:54 37.2 °F 35.1 °F 30.5 in WSW 1.1 mph 6 mph 92% 0 in 0 W/m2
03:59 37.4 °F 35.4 °F 30.5 in WSW 0.4 mph 2 mph 92.5% 0 in 0 W/m2
04:04 37.6 °F 35.6 °F 30.5 in West 0.5 mph 5 mph 92.3% 0 in 0 W/m2
04:09 37.6 °F 35.6 °F 30.5 in WSW 1.6 mph 5 mph 92% 0 in 0 W/m2
04:14 37.6 °F 35.4 °F 30.5 in WSW 2.6 mph 5 mph 92% 0 in 0 W/m2
04:19 37.4 °F 35.2 °F 30.5 in WSW 1.5 mph 5 mph 92% 0 in 0 W/m2
04:24 37.2 °F 35.1 °F 30.5 in WSW 1.7 mph 5 mph 92% 0 in 0 W/m2
04:29 37 °F 34.9 °F 30.5 in WSW 1 mph 2 mph 92% 0 in 0 W/m2
04:34 37 °F 34.9 °F 30.5 in WSW 0.2 mph 2 mph 92% 0 in 0 W/m2
04:39 37 °F 34.9 °F 30.5 in WSW 1 mph 5 mph 92% 0 in 0 W/m2
04:44 37 °F 34.9 °F 30.5 in WSW 1.8 mph 5 mph 92% 0 in 0 W/m2
04:49 37 °F 34.9 °F 30.5 in WSW 1.7 mph 5 mph 92% 0 in 0 W/m2
04:54 37 °F 34.9 °F 30.5 in WSW 2.1 mph 5 mph 92% 0 in 0 W/m2
04:59 37 °F 34.9 °F 30.5 in WSW 1.7 mph 6 mph 92% 0 in 0 W/m2
05:04 37 °F 35.1 °F 30.5 in WSW 1.3 mph 5 mph 92% 0 in 0 W/m2
05:09 37.2 °F 35.1 °F 30.5 in WSW 1.4 mph 6 mph 92% 0 in 0 W/m2
05:14 37.2 °F 35.1 °F 30.5 in West 2.9 mph 7 mph 92% 0 in 0 W/m2
05:19 37.4 °F 35.2 °F 30.6 in WSW 4.2 mph 10 mph 92% 0 in 0 W/m2
05:24 37.4 °F 35.4 °F 30.6 in WSW 5.2 mph 10 mph 92% 0 in 0 W/m2
05:29 37.6 °F 35.4 °F 30.6 in WSW 5.3 mph 9 mph 92% 0 in 0 W/m2
05:34 37.6 °F 35.4 °F 30.6 in WSW 5.1 mph 7 mph 92% 0 in 0 W/m2
05:39 37.6 °F 35.4 °F 30.6 in WSW 4 mph 7 mph 92% 0 in 0 W/m2
05:44 37.6 °F 35.4 °F 30.6 in WSW 3 mph 7 mph 92% 0 in 0 W/m2
05:49 37.6 °F 35.4 °F 30.6 in WSW 3.1 mph 7 mph 92% 0 in 0 W/m2
05:54 37.4 °F 35.1 °F 30.6 in WSW 1.7 mph 5 mph 91.4% 0 in 0 W/m2
05:59 37.2 °F 34.7 °F 30.6 in SW 2.4 mph 5 mph 91% 0 in 0 W/m2
06:04 37 °F 34.7 °F 30.6 in SW 3.7 mph 5 mph 91% 0 in 0 W/m2
06:09 36.9 °F 34.3 °F 30.6 in SW 3.2 mph 5 mph 91% 0 in 0 W/m2
06:14 36.7 °F 34.5 °F 30.6 in WSW 1.4 mph 5 mph 91.5% 0 in 0 W/m2
06:19 36.7 °F 34.5 °F 30.6 in WSW 3 mph 7 mph 92% 0 in 0 W/m2
06:24 36.9 °F 34.9 °F 30.6 in WSW 3.2 mph 7 mph 92% 0 in 0 W/m2
06:29 37 °F 34.9 °F 30.6 in WSW 3.6 mph 6 mph 92% 0 in 0 W/m2
06:34 37 °F 34.9 °F 30.6 in WSW 3.7 mph 6 mph 92% 0 in 0 W/m2
06:39 37 °F 35.1 °F 30.6 in WSW 3.4 mph 7 mph 92% 0 in 0 W/m2
06:44 37.2 °F 35.1 °F 30.6 in WSW 3 mph 6 mph 92% 0 in 0 W/m2
06:49 37 °F 34.9 °F 30.6 in SW 4.5 mph 7 mph 92% 0 in 0 W/m2
06:54 36.9 °F 34.7 °F 30.6 in SW 4.4 mph 7 mph 92% 0 in 5 W/m2
06:59 36.5 °F 34.3 °F 30.6 in SW 5 mph 6 mph 92% 0 in 7 W/m2
07:04 36.3 °F 34.2 °F 30.6 in SW 5 mph 7 mph 92% 0 in 9 W/m2
07:09 36.3 °F 34.2 °F 30.6 in SW 4.7 mph 7 mph 92% 0 in 11 W/m2
07:14 36.3 °F 34.2 °F 30.6 in WSW 2.7 mph 6 mph 92% 0 in 14 W/m2
07:19 36.3 °F 34.2 °F 30.6 in WSW 1.9 mph 5 mph 92% 0 in 16 W/m2
07:24 36.3 °F 34.2 °F 30.6 in WSW 2.9 mph 5 mph 92% 0 in 19 W/m2
07:29 36.3 °F 34.2 °F 30.6 in WSW 2.6 mph 5 mph 92.1% 0 in 21 W/m2
07:34 36.3 °F 34.5 °F 30.6 in WSW 3.1 mph 5 mph 93% 0 in 23 W/m2
07:39 36.5 °F 34.7 °F 30.6 in WSW 1.7 mph 4 mph 93% 0 in 25 W/m2
07:44 36.5 °F 34.7 °F 30.6 in WSW 2.7 mph 6 mph 92.8% 0 in 26 W/m2
07:49 36.7 °F 34.9 °F 30.6 in WSW 4 mph 6 mph 93% 0 in 28 W/m2
07:54 36.7 °F 34.9 °F 30.6 in WSW 2.7 mph 5 mph 93% 0 in 30 W/m2
07:59 36.9 °F 34.9 °F 30.6 in WSW 3 mph 5 mph 93% 0 in 93 W/m2
08:04 36.9 °F 35.1 °F 30.6 in WSW 3.1 mph 5 mph 93% 0 in 102 W/m2
08:09 37 °F 35.2 °F 30.6 in WSW 2.9 mph 5 mph 93% 0 in 113 W/m2
08:14 37.4 °F 35.6 °F 30.6 in WSW 2 mph 5 mph 93% 0 in 120 W/m2
08:19 37.8 °F 36 °F 30.6 in WSW 2 mph 4 mph 93% 0 in 132 W/m2
08:24 38.1 °F 36.3 °F 30.6 in SW 2.6 mph 5 mph 93% 0 in 142 W/m2
08:29 38.5 °F 36.7 °F 30.6 in SW 3.2 mph 5 mph 93% 0 in 153 W/m2
08:34 38.7 °F 36.9 °F 30.6 in SW 3.8 mph 5 mph 93% 0 in 163 W/m2
08:39 38.8 °F 37 °F 30.6 in SW 2.2 mph 5 mph 93% 0 in 176 W/m2
08:44 39.2 °F 37.4 °F 30.6 in WSW 1.4 mph 5 mph 93% 0 in 185 W/m2
08:49 39.6 °F 37.6 °F 30.6 in WSW 1.3 mph 5 mph 92.8% 0 in 195 W/m2
08:54 39.7 °F 37.6 °F 30.6 in WSW 2.2 mph 4 mph 92% 0 in 207 W/m2
08:59 39.7 °F 37.8 °F 30.6 in WSW 3.2 mph 7 mph 92% 0 in 218 W/m2
09:04 40.3 °F 38.1 °F 30.6 in West 3.9 mph 7 mph 92% 0 in 229 W/m2
09:09 40.5 °F 38.3 °F 30.6 in WSW 4 mph 6 mph 92% 0 in 239 W/m2
09:14 40.8 °F 38.7 °F 30.6 in WSW 4.5 mph 8 mph 91.9% 0 in 250 W/m2
09:19 41.2 °F 38.8 °F 30.6 in WSW 5.3 mph 9 mph 91.4% 0 in 260 W/m2
09:24 41.4 °F 38.8 °F 30.6 in WSW 5.1 mph 9 mph 90.8% 0 in 272 W/m2
09:29 41.5 °F 38.8 °F 30.6 in West 5 mph 8 mph 90.3% 0 in 281 W/m2
09:34 41.5 °F 38.8 °F 30.6 in West 5.8 mph 8 mph 90% 0 in 292 W/m2
09:39 41.7 °F 39 °F 30.6 in WSW 5.7 mph 8 mph 90% 0 in 301 W/m2
09:44 42.1 °F 39 °F 30.6 in West 5.2 mph 9 mph 89.3% 0 in 309 W/m2
09:49 42.1 °F 39 °F 30.6 in West 6 mph 9 mph 89% 0 in 318 W/m2
09:54 42.3 °F 39.2 °F 30.6 in West 5.8 mph 9 mph 89% 0 in 325 W/m2
09:59 42.4 °F 39.4 °F 30.6 in West 6 mph 8 mph 89% 0 in 336 W/m2
10:04 42.4 °F 39.6 °F 30.6 in WSW 4.7 mph 8 mph 89% 0 in 348 W/m2
10:09 42.6 °F 39.6 °F 30.6 in WSW 4.2 mph 7 mph 89% 0 in 355 W/m2
10:14 42.8 °F 39.7 °F 30.6 in WSW 4.7 mph 8 mph 89% 0 in 362 W/m2
10:19 43.2 °F 40.1 °F 30.6 in West 5.4 mph 8 mph 89% 0 in 369 W/m2
10:24 43.2 °F 40.1 °F 30.6 in WSW 5.9 mph 9 mph 89% 0 in 378 W/m2
10:29 43.3 °F 40.3 °F 30.6 in West 6.6 mph 10 mph 89% 0 in 388 W/m2
10:34 43.9 °F 40.8 °F 30.6 in West 6 mph 10 mph 89% 0 in 396 W/m2
10:39 44.1 °F 40.6 °F 30.6 in West 5.6 mph 9 mph 88% 0 in 418 W/m2
10:44 44.1 °F 40.8 °F 30.6 in West 5.4 mph 8 mph 88.1% 0 in 427 W/m2
10:49 44.4 °F 41.2 °F 30.6 in West 5.5 mph 10 mph 88.4% 0 in 429 W/m2
10:54 44.2 °F 40.8 °F 30.6 in West 5.6 mph 10 mph 87.8% 0 in 438 W/m2
10:59 44.6 °F 41.2 °F 30.6 in WSW 6.9 mph 11 mph 88% 0 in 443 W/m2
11:09 44.8 °F 41.2 °F 30.6 in WSW 6.2 mph 9 mph 87.3% 0 in 464 W/m2
11:14 45.1 °F 41.4 °F 30.6 in WSW 6.4 mph 10 mph 87.2% 0 in 462 W/m2
11:19 45.5 °F 41.9 °F 30.6 in WSW 7 mph 10 mph 87.2% 0 in 462 W/m2
11:24 45.9 °F 42.1 °F 30.6 in WSW 7.1 mph 12 mph 86.8% 0 in 462 W/m2
11:29 45.7 °F 41.4 °F 30.6 in WSW 7.2 mph 12 mph 85.1% 0 in 464 W/m2
11:34 45.9 °F 41.7 °F 30.6 in West 7.4 mph 10 mph 85% 0 in 475 W/m2
11:39 46.4 °F 42.1 °F 30.6 in West 7.7 mph 12 mph 85% 0 in 478 W/m2
11:44 46.6 °F 41.9 °F 30.6 in WNW 7.9 mph 14 mph 83.5% 0 in 483 W/m2
11:49 46.6 °F 41.7 °F 30.6 in West 9.7 mph 14 mph 83% 0 in 512 W/m2
11:54 46.8 °F 41.7 °F 30.6 in WNW 9.2 mph 15 mph 82.9% 0 in 541 W/m2
11:59 46.8 °F 41.7 °F 30.6 in West 9.3 mph 14 mph 82.5% 0 in 594 W/m2
12:04 46.9 °F 41.7 °F 30.6 in WNW 10.1 mph 13 mph 82.2% 0 in 582 W/m2
12:09 46.9 °F 41.7 °F 30.6 in WNW 9.8 mph 13 mph 82% 0 in 566 W/m2
12:14 46.8 °F 41.7 °F 30.6 in West 9.5 mph 13 mph 82.2% 0 in 227 W/m2
12:19 46.8 °F 41.5 °F 30.6 in West 9.6 mph 14 mph 82% 0 in 265 W/m2
12:24 46.8 °F 41.7 °F 30.6 in West 9.6 mph 14 mph 82.2% 0 in 301 W/m2
12:29 46.9 °F 41.7 °F 30.6 in WNW 10.2 mph 14 mph 82% 0 in 301 W/m2
12:34 46.8 °F 41.7 °F 30.6 in WNW 8.8 mph 13 mph 82.5% 0 in 214 W/m2
12:39 46.9 °F 41.9 °F 30.6 in WNW 9 mph 12 mph 82.8% 0 in 288 W/m2
12:44 46.9 °F 41.9 °F 30.6 in WNW 8.6 mph 12 mph 82.5% 0 in 318 W/m2
12:49 46.9 °F 41.9 °F 30.6 in West 6.1 mph 10 mph 82.4% 0 in 332 W/m2
12:54 47.5 °F 42.3 °F 30.6 in West 6.6 mph 12 mph 82% 0 in 454 W/m2
12:59 47.7 °F 42.3 °F 30.6 in WNW 8.6 mph 12 mph 81.3% 0 in 570 W/m2
13:04 47.8 °F 42.1 °F 30.6 in WNW 8 mph 11 mph 80% 0 in 515 W/m2
13:09 47.8 °F 41.7 °F 30.6 in West 7.1 mph 11 mph 79.2% 0 in 529 W/m2
13:14 48.2 °F 42.1 °F 30.6 in WNW 6.2 mph 14 mph 79.1% 0 in 490 W/m2
13:19 48.4 °F 42.1 °F 30.6 in WNW 6.3 mph 14 mph 78.6% 0 in 508 W/m2
13:24 48.6 °F 42.1 °F 30.6 in WNW 9 mph 13 mph 78.2% 0 in 538 W/m2
13:29 48.6 °F 42.1 °F 30.6 in WNW 8.1 mph 13 mph 78% 0 in 578 W/m2
13:34 48.7 °F 42.1 °F 30.6 in WNW 6.6 mph 13 mph 77.7% 0 in 571 W/m2
13:39 49.1 °F 41.5 °F 30.6 in West 9.7 mph 19 mph 75.2% 0 in 557 W/m2
13:44 49.1 °F 41 °F 30.6 in West 9.9 mph 19 mph 73.6% 0 in 501 W/m2
13:49 49.5 °F 41.4 °F 30.6 in West 8.8 mph 14 mph 73.8% 0 in 476 W/m2
13:54 48.9 °F 40.8 °F 30.6 in West 8.9 mph 13 mph 73.8% 0 in 144 W/m2
13:59 48.6 °F 40.8 °F 30.6 in West 7 mph 12 mph 74.5% 0 in 123 W/m2
14:04 48.4 °F 40.8 °F 30.6 in West 9.3 mph 13 mph 74.9% 0 in 475 W/m2
14:09 48.7 °F 40.8 °F 30.6 in West 8.8 mph 14 mph 74.1% 0 in 476 W/m2
14:14 49.3 °F 40.8 °F 30.6 in West 8.7 mph 14 mph 72.7% 0 in 480 W/m2
14:19 49.6 °F 41 °F 30.6 in West 7.5 mph 14 mph 72.3% 0 in 520 W/m2
14:24 49.8 °F 41.2 °F 30.6 in WSW 9.1 mph 14 mph 71.8% 0 in 526 W/m2
14:29 49.6 °F 40.8 °F 30.6 in West 9.1 mph 14 mph 71.5% 0 in 515 W/m2
14:34 49.5 °F 40.8 °F 30.6 in West 8.3 mph 13 mph 72% 0 in 526 W/m2
14:39 49.6 °F 41.4 °F 30.6 in West 7.3 mph 12 mph 72.9% 0 in 522 W/m2
14:44 49.8 °F 41.9 °F 30.6 in West 7 mph 13 mph 73.7% 0 in 218 W/m2
14:49 49.5 °F 41.4 °F 30.6 in West 10.2 mph 13 mph 73.5% 0 in 193 W/m2
14:54 49.1 °F 41 °F 30.6 in WNW 8.9 mph 12 mph 73.8% 0 in 123 W/m2
14:57 48.9 °F 40.6 °F 30.6 in WNW 8.1 mph 11 mph 73.2% 0 in 232 W/m2
North Lincolnshire Weather
Compliments of Weather Underground - 2 mb

Data updates at regular intervals.